KBYL

Williamsburg-Whitley County Airport

Williamsburg, Kentucky, USA
METAR KBYL 232215Z AUTO 21004KT 10SM SCT060 24/14 A3024 RMK AO1
Observed Flight Rules
Feb-23 @ 22:15 UTC (23 minutes ago) Visual Flight Rules
Wind Visibility Clouds
210° at 4 knots 10 miles
  • Scattered at 6,000' AGL
Temperatures Readings
Current 24°C / 75°F
Dewpoint 14°C / 57°F
Humidity 54%
Altimeter 30.24" Hg
Pressure 1024 hPa
Elevation 359
METAR KBYL 232215Z AUTO 21004KT 10SM SCT060 24/14 A3024 RMK AO1
Observed Flight Rules
Feb-23 @ 22:15 UTC
(23 minutes ago)
VFR
Wind Visibility
210° at 4 knots 10 miles
Clouds
  • Scattered at 6,000' AGL
Temperature Dewpoint
24°C / 75°F 14°C / 57°F
Humidity Altimeter Pressure
54% 30.24" Hg 1024 hPa